Eendracht — PDVN — position and weather

sailwx.info

Track history (hours):
 
Tides and Currents Weather Stations Pressure Air Temp Water Temp Dewpoint Dewpoint Depression Visibility Wind Speed Wind Dir Waves Ship Positions

Eendracht (Netherlands)

Last reported at 2018-Feb-25 05:30 UTC. Time now 2018-Feb-25 05:48 UTC.
Position N 36°58' W 025°51'.

Length 59 m; beam 12 m; draft 5 m.

Type: Sailing vessel. MMSI: 244543000.

Date/timePositionNaut miles runAvg speedWind from/ knotsBaromVisibWave heightAir tempDewpointWater temp
2018-Feb-25 05:30N 36°58' W 025°51'2 4.2
2018-Feb-25 05:01N 36°56' W 025°51'2 4.3
2018-Feb-25 04:31N 36°54' W 025°51'2 4.0
2018-Feb-25 04:00N 36°52' W 025°51'2 3.9
2018-Feb-25 03:30N 36°50' W 025°51'2 3.8
2018-Feb-25 03:00N 36°48' W 025°51'2 3.9
2018-Feb-25 02:30N 36°46' W 025°51'2 3.7
2018-Feb-25 02:00N 36°44' W 025°52'2 4.8
2018-Feb-25 01:30N 36°41' W 025°51'2 4.2
2018-Feb-25 01:00N 36°39' W 025°51'2 3.9
2018-Feb-25 00:30N 36°37' W 025°51'2 3.7
2018-Feb-25 00:00N 36°36' W 025°51'2 3.2
2018-Feb-24 23:30N 36°34' W 025°50'2 3.2
2018-Feb-24 23:00N 36°32' W 025°50'1 2.7
2018-Feb-24 22:30N 36°31' W 025°51'1 2.6
2018-Feb-24 22:00N 36°30' W 025°51'1 2.6
2018-Feb-24 21:30N 36°29' W 025°51'1 2.6
2018-Feb-24 21:00N 36°27' W 025°51'1 2.8
2018-Feb-24 20:30N 36°26' W 025°50'2 3.4
2018-Feb-24 20:00N 36°25' W 025°48'2 4.8
2018-Feb-24 19:30N 36°23' W 025°46'3 5.5
2018-Feb-24 19:00N 36°22' W 025°44'3 6.1
2018-Feb-24 18:31N 36°20' W 025°41'3 6.1
2018-Feb-24 18:00N 36°18' W 025°38'3 6.0
2018-Feb-24 17:31N 36°16' W 025°35'3 6.0
2018-Feb-24 17:01N 36°15' W 025°31'3 5.8
2018-Feb-24 16:30N 36°15' W 025°28'3 6.0
2018-Feb-24 16:00N 36°14' W 025°24'3 5.9
2018-Feb-24 15:30N 36°13' W 025°21'3 6.2
2018-Feb-24 15:00N 36°12' W 025°17'3 6.5
2018-Feb-24 14:30N 36°10' W 025°13'3 6.3
2018-Feb-24 14:00N 36°10' W 025°09'3 6.4
2018-Feb-24 13:30N 36°09' W 025°06'3 6.0
2018-Feb-24 13:00N 36°08' W 025°02'3 5.5
2018-Feb-24 12:30N 36°07' W 024°59'2 4.0
2018-Feb-24 12:00N 36°06' W 024°57'3 5.4
2018-Feb-24 11:30N 36°03' W 024°57'3 6.4
2018-Feb-24 11:00N 36°00' W 024°58'3 6.5
2018-Feb-24 10:30N 35°57' W 024°59'3 6.3
2018-Feb-24 10:01N 35°54' W 024°59'3 6.1
2018-Feb-24 09:30N 35°51' W 024°59'3 6.0
2018-Feb-24 09:00N 35°48' W 025°01'3 6.4
2018-Feb-24 08:30N 35°45' W 025°02'3 6.5
2018-Feb-24 08:00N 35°42' W 025°04'3 5.3
2018-Feb-24 07:27N 35°40' W 025°02'7 6.9
2018-Feb-24 06:28N 35°36' W 024°56'  
2018-Feb-20 01:53N 28°40' W 016°04'2 5.2
2018-Feb-20 01:30N 28°39' W 016°02'3 5.1
2018-Feb-20 01:00N 28°37' W 015°60'2 4.4
2018-Feb-20 00:29N 28°36' W 015°58'2 4.5
2018-Feb-20 00:00N 28°35' W 015°55'2 4.2
2018-Feb-19 23:30N 28°34' W 015°53'2 4.6
2018-Feb-19 23:00N 28°33' W 015°51'2 4.7
2018-Feb-19 22:30N 28°32' W 015°49'2 4.7
2018-Feb-19 21:59N 28°30' W 015°46'2 4.4
2018-Feb-19 21:30N 28°29' W 015°44'2 3.8
2018-Feb-19 21:00N 28°28' W 015°42'2 4.4
2018-Feb-19 20:30N 28°27' W 015°40'2 4.9
2018-Feb-19 20:00N 28°25' W 015°38'2 3.8
2018-Feb-19 19:30N 28°25' W 015°36'2 3.9
2018-Feb-19 19:00N 28°24' W 015°34'2 4.5
2018-Feb-19 18:30N 28°23' W 015°32'2 4.4
2018-Feb-19 18:00N 28°22' W 015°29'2 3.2
2018-Feb-19 17:30N 28°21' W 015°28'1 2.9
2018-Feb-19 17:00N 28°20' W 015°27'2 3.3
2018-Feb-19 16:30N 28°19' W 015°26'2 4.9
2018-Feb-19 16:00N 28°17' W 015°25'2 4.9
2018-Feb-19 15:30N 28°14' W 015°23'2 4.5
2018-Feb-19 15:00N 28°12' W 015°23'2 4.8
2018-Feb-19 14:30N 28°10' W 015°23'2 4.7
2018-Feb-19 14:00N 28°08' W 015°23'2 4.4
2018-Feb-19 13:30N 28°07' W 015°25'1 2.3
2018-Feb-19 13:00N 28°08' W 015°26'0 0.0
2018-Feb-19 12:20N 28°08' W 015°26'0 0.0
2018-Feb-19 11:53N 28°08' W 015°26'0 0.0
2018-Feb-19 11:23N 28°08' W 015°26'0 0.0
2018-Feb-19 10:53N 28°08' W 015°26'0 0.0
2018-Feb-19 10:26N 28°08' W 015°26'0 0.0
2018-Feb-19 09:56N 28°08' W 015°26'0 0.0
2018-Feb-19 09:26N 28°08' W 015°26'0 0.0
2018-Feb-19 08:56N 28°08' W 015°26'0 0.0
2018-Feb-19 08:11N 28°08' W 015°26'0 0.0
2018-Feb-19 07:56N 28°08' W 015°26'0 0.0
2018-Feb-19 07:23N 28°08' W 015°26'0 0.0
2018-Feb-19 06:53N 28°08' W 015°26'0 0.0
2018-Feb-19 06:26N 28°08' W 015°26'0 0.0
2018-Feb-19 05:56N 28°08' W 015°26'0 0.0
2018-Feb-19 05:29N 28°08' W 015°26'0 0.0
2018-Feb-19 04:59N 28°08' W 015°26'0 0.0
2018-Feb-19 04:29N 28°08' W 015°26'0 0.0
2018-Feb-19 03:59N 28°08' W 015°26'0 0.0
2018-Feb-19 03:29N 28°08' W 015°26'0 0.0
2018-Feb-19 02:59N 28°08' W 015°26'0 0.0
2018-Feb-19 02:29N 28°08' W 015°26'0 0.0
2018-Feb-19 01:59N 28°08' W 015°26'0 0.0
2018-Feb-19 01:29N 28°08' W 015°26'0 0.0
2018-Feb-19 00:56N 28°08' W 015°26'0 0.0
2018-Feb-19 00:26N 28°08' W 015°26'0 0.0
2018-Feb-18 23:59N 28°08' W 015°26'0 0.0
2018-Feb-18 23:29N 28°08' W 015°26'0 0.0
2018-Feb-18 22:59N 28°08' W 015°26'0 0.0
2018-Feb-18 22:29N 28°08' W 015°26'0 0.0
2018-Feb-18 21:59N 28°08' W 015°26'0 0.0
2018-Feb-18 21:29N 28°08' W 015°26'0 0.0
2018-Feb-18 20:59N 28°08' W 015°26'0 0.0
2018-Feb-18 20:29N 28°08' W 015°26'0 0.0
2018-Feb-18 19:59N 28°08' W 015°26'0 0.0
2018-Feb-18 19:29N 28°08' W 015°26'0 0.0
2018-Feb-18 18:59N 28°08' W 015°26'0 0.0
2018-Feb-18 18:29N 28°08' W 015°26'0 0.0
2018-Feb-18 17:59N 28°08' W 015°26'0 0.0
2018-Feb-18 17:17N 28°08' W 015°26'0 0.0
2018-Feb-18 16:50N 28°08' W 015°26'0 0.0
2018-Feb-18 16:20N 28°08' W 015°26'0 0.0
2018-Feb-18 15:50N 28°08' W 015°26'0 0.0
2018-Feb-18 15:20N 28°08' W 015°26'0 0.0
2018-Feb-18 14:53N 28°08' W 015°26'0 0.0
2018-Feb-18 14:05N 28°08' W 015°26'0 0.0
2018-Feb-18 13:53N 28°08' W 015°26'0 0.0
2018-Feb-18 13:23N 28°08' W 015°26'0 0.0
2018-Feb-18 12:50N 28°08' W 015°26'0 0.0
2018-Feb-18 12:23N 28°08' W 015°26'0 0.0
2018-Feb-18 11:53N 28°08' W 015°26'0 0.0
2018-Feb-18 11:20N 28°08' W 015°26'0 0.0
2018-Feb-18 10:53N 28°08' W 015°26'0 0.0
2018-Feb-18 10:26N 28°08' W 015°26'0 0.0
2018-Feb-18 09:56N 28°08' W 015°26'0 0.0
2018-Feb-18 09:23N 28°08' W 015°26'0 0.0
2018-Feb-18 08:56N 28°08' W 015°26'0 0.0
2018-Feb-18 08:23N 28°08' W 015°26'0 0.0
2018-Feb-18 07:41N 28°08' W 015°26'0 0.0
2018-Feb-18 07:08N 28°08' W 015°26'0 0.0
2018-Feb-18 06:56N 28°08' W 015°26'0 0.0
2018-Feb-18 06:23N 28°08' W 015°26'0 0.0
2018-Feb-18 05:53N 28°08' W 015°26'0 0.0
2018-Feb-18 05:26N 28°08' W 015°26'0 0.0
2018-Feb-18 04:59N 28°08' W 015°26'0 0.0
2018-Feb-18 04:29N 28°08' W 015°26'0 0.0
2018-Feb-18 03:59N 28°08' W 015°26'0 0.0
2018-Feb-18 03:29N 28°08' W 015°26'0 0.0
2018-Feb-18 02:59N 28°08' W 015°26'0 0.0
2018-Feb-18 02:26N 28°08' W 015°26'0 0.0
2018-Feb-18 01:59N 28°08' W 015°26'0 0.0
2018-Feb-18 01:26N 28°08' W 015°26'0 0.0
2018-Feb-18 00:55N 28°08' W 015°26'0 0.0
2018-Feb-18 00:28N 28°08' W 015°26'0 0.0
2018-Feb-17 23:58N 28°08' W 015°26'0 0.0
2018-Feb-17 23:28N 28°08' W 015°26'0 0.0
2018-Feb-17 22:58N 28°08' W 015°26'0 0.0
2018-Feb-17 22:28N 28°08' W 015°26'0 0.0
2018-Feb-17 21:55N 28°08' W 015°26'0 0.0
2018-Feb-17 21:28N 28°08' W 015°26'0 0.0
2018-Feb-17 20:58N 28°08' W 015°26'0 0.0
2018-Feb-17 20:28N 28°08' W 015°26'0 0.0
2018-Feb-17 19:46N 28°08' W 015°26'0 0.0
2018-Feb-17 19:28N 28°08' W 015°26'0 0.0
2018-Feb-17 18:58N 28°08' W 015°26'0 0.0
2018-Feb-17 18:28N 28°08' W 015°26'0 0.0
2018-Feb-17 17:58N 28°08' W 015°26'0 0.0
2018-Feb-17 17:19N 28°08' W 015°26'0 0.0
2018-Feb-17 16:58N 28°08' W 015°26'0 0.0
2018-Feb-17 16:19N 28°08' W 015°26'0 0.0
2018-Feb-17 15:49N 28°08' W 015°26'0 0.0
2018-Feb-17 15:19N 28°08' W 015°26'0 0.0
2018-Feb-17 14:49N 28°08' W 015°26'0 0.0
2018-Feb-17 14:16N 28°08' W 015°26'0 0.0
2018-Feb-17 13:49N 28°08' W 015°26'0 0.0
2018-Feb-17 13:19N 28°08' W 015°26'0 0.0
2018-Feb-17 12:52N 28°08' W 015°26'0 0.0
2018-Feb-17 12:22N 28°08' W 015°26'0 0.0
2018-Feb-17 11:19N 28°08' W 015°26'0 0.0
2018-Feb-17 10:52N 28°08' W 015°26'0 0.0
2018-Feb-17 10:22N 28°08' W 015°26'0 0.0
2018-Feb-17 09:52N 28°08' W 015°26'0 0.0
2018-Feb-17 09:25N 28°08' W 015°26'0 0.0
2018-Feb-17 08:55N 28°08' W 015°26'0 0.0
2018-Feb-17 08:25N 28°08' W 015°26'0 0.0
2018-Feb-17 07:55N 28°08' W 015°26'0 0.0
2018-Feb-17 07:25N 28°08' W 015°26'0 0.0
2018-Feb-17 06:55N 28°08' W 015°26'0 0.0
2018-Feb-17 06:25N 28°08' W 015°26'0 0.0
2018-Feb-17 05:55N 28°08' W 015°26'0 0.0
2018-Feb-17 05:25N 28°08' W 015°26'0 0.0
2018-Feb-17 04:55N 28°08' W 015°26'0 0.0
2018-Feb-17 04:28N 28°08' W 015°26'0 0.0
2018-Feb-17 03:58N 28°08' W 015°26'0 0.0
2018-Feb-17 03:28N 28°08' W 015°26'0 0.0
2018-Feb-17 02:58N 28°08' W 015°26'0 0.0
2018-Feb-17 02:28N 28°08' W 015°26'0 0.0
2018-Feb-17 01:58N 28°08' W 015°26'0 0.0
2018-Feb-17 01:28N 28°08' W 015°26'0 0.0
2018-Feb-17 00:58N 28°08' W 015°26'0 0.0
2018-Feb-17 00:28N 28°08' W 015°26'0 0.0
2018-Feb-16 23:58N 28°08' W 015°26'0 0.0
2018-Feb-16 23:25N 28°08' W 015°26'0 0.0
2018-Feb-16 22:58N 28°08' W 015°26'0 0.0
2018-Feb-16 22:28N 28°08' W 015°26'0 0.0
2018-Feb-16 21:58N 28°08' W 015°26'0 0.0
2018-Feb-16 21:25N 28°08' W 015°26'0 0.0
2018-Feb-16 20:58N 28°08' W 015°26'0 0.0
2018-Feb-16 20:28N 28°08' W 015°26'0 0.0
2018-Feb-16 19:58N 28°08' W 015°26'0 0.0
2018-Feb-16 19:28N 28°08' W 015°26'0 0.0
2018-Feb-16 18:43N 28°08' W 015°26'0 0.0
2018-Feb-16 18:28N 28°08' W 015°26'0 0.0
2018-Feb-16 17:49N 28°08' W 015°26'0 0.0
2018-Feb-16 17:19N 28°08' W 015°26'0 0.0
2018-Feb-16 16:58N 28°08' W 015°26'0 0.0
2018-Feb-16 16:19N 28°08' W 015°26'0 0.0
2018-Feb-16 15:46N 28°08' W 015°26'0 0.0
2018-Feb-16 15:31N 28°08' W 015°26'0 0.0
2018-Feb-16 15:01N 28°08' W 015°26'0 0.0
2018-Feb-16 14:30N 28°08' W 015°26'2 3.5
2018-Feb-16 14:00N 28°07' W 015°24'2 4.7
2018-Feb-16 13:30N 28°09' W 015°23'2 4.9
2018-Feb-16 13:00N 28°12' W 015°23'3 5.5
2018-Feb-16 12:30N 28°14' W 015°25'3 5.9
2018-Feb-16 12:00N 28°16' W 015°28'3 5.7
2018-Feb-16 11:30N 28°18' W 015°30'3 5.8
2018-Feb-16 11:00N 28°20' W 015°33'3 5.7
2018-Feb-16 10:30N 28°21' W 015°35'3 5.3
2018-Feb-16 10:00N 28°23' W 015°37'2 5.1
2018-Feb-16 09:30N 28°25' W 015°40'2 3.4
2018-Feb-16 09:00N 28°26' W 015°41'2 5.0
2018-Feb-16 08:30N 28°28' W 015°43'2 4.6
2018-Feb-16 08:00N 28°30' W 015°44'3 5.3
2018-Feb-16 07:30N 28°32' W 015°46'3 5.6
2018-Feb-16 07:00N 28°34' W 015°48'3 6.2
2018-Feb-16 06:29N 28°36' W 015°50'3 6.0
2018-Feb-16 06:00N 28°39' W 015°52'1 1.7
2018-Feb-16 05:30N 28°39' W 015°53'2 4.0
2018-Feb-16 05:00N 28°40' W 015°55'2 4.1
2018-Feb-16 04:30N 28°42' W 015°57'2 4.4
2018-Feb-16 04:00N 28°44' W 015°58'3 5.8
2018-Feb-16 03:30N 28°46' W 015°59'2 4.4
2018-Feb-16 02:58N 28°48' W 016°00'4 7.6
2018-Feb-16 02:29N 28°51' W 016°03'4 6.4
2018-Feb-16 01:52N 28°54' W 016°06'3 5.6
2018-Feb-16 01:25N 28°57' W 016°07'3 4.3
2018-Feb-16 00:50N 28°59' W 016°09'10 1.7
2018-Feb-15 18:58N 28°52' W 016°17'4 7.8
2018-Feb-15 18:30N 28°49' W 016°17'7 7.5
2018-Feb-15 17:37N 28°42' W 016°19'1 1.8
2018-Feb-15 17:18N 28°42' W 016°19'3 7.0
2018-Feb-15 16:54N 28°45' W 016°21'19 6.3
2018-Feb-15 13:56N 28°60' W 016°34'13 6.1
2018-Feb-15 11:49N 29°09' W 016°43'2 6.1
2018-Feb-15 11:27N 29°11' W 016°45'3 7.0
2018-Feb-15 10:59N 29°14' W 016°48'3 7.1
2018-Feb-15 10:30N 29°16' W 016°50'  
Track history (hours):
 
Tides and Currents Weather Stations Pressure Air Temp Water Temp Dewpoint Dewpoint Depression Visibility Wind Speed Wind Dir Waves Ship Positions

Eendracht (Netherlands)

Last reported at 2018-Feb-25 05:30 UTC. Time now 2018-Feb-25 05:48 UTC.
Position N 36°58' W 025°51'.

Length 59 m; beam 12 m; draft 5 m.

Type: Sailing vessel. MMSI: 244543000.

Date/timePositionNaut miles runAvg speedWind from/ knotsBaromVisibWave heightAir tempDewpointWater temp
2018-Feb-25 05:30N 36°58' W 025°51'2 4.2
2018-Feb-25 05:01N 36°56' W 025°51'2 4.3
2018-Feb-25 04:31N 36°54' W 025°51'2 4.0
2018-Feb-25 04:00N 36°52' W 025°51'2 3.9
2018-Feb-25 03:30N 36°50' W 025°51'2 3.8
2018-Feb-25 03:00N 36°48' W 025°51'2 3.9
2018-Feb-25 02:30N 36°46' W 025°51'2 3.7
2018-Feb-25 02:00N 36°44' W 025°52'2 4.8
2018-Feb-25 01:30N 36°41' W 025°51'2 4.2
2018-Feb-25 01:00N 36°39' W 025°51'2 3.9
2018-Feb-25 00:30N 36°37' W 025°51'2 3.7
2018-Feb-25 00:00N 36°36' W 025°51'2 3.2
2018-Feb-24 23:30N 36°34' W 025°50'2 3.2
2018-Feb-24 23:00N 36°32' W 025°50'1 2.7
2018-Feb-24 22:30N 36°31' W 025°51'1 2.6
2018-Feb-24 22:00N 36°30' W 025°51'1 2.6
2018-Feb-24 21:30N 36°29' W 025°51'1 2.6
2018-Feb-24 21:00N 36°27' W 025°51'1 2.8
2018-Feb-24 20:30N 36°26' W 025°50'2 3.4
2018-Feb-24 20:00N 36°25' W 025°48'2 4.8
2018-Feb-24 19:30N 36°23' W 025°46'3 5.5
2018-Feb-24 19:00N 36°22' W 025°44'3 6.1
2018-Feb-24 18:31N 36°20' W 025°41'3 6.1
2018-Feb-24 18:00N 36°18' W 025°38'3 6.0
2018-Feb-24 17:31N 36°16' W 025°35'3 6.0
2018-Feb-24 17:01N 36°15' W 025°31'3 5.8
2018-Feb-24 16:30N 36°15' W 025°28'3 6.0
2018-Feb-24 16:00N 36°14' W 025°24'3 5.9
2018-Feb-24 15:30N 36°13' W 025°21'3 6.2
2018-Feb-24 15:00N 36°12' W 025°17'3 6.5
2018-Feb-24 14:30N 36°10' W 025°13'3 6.3
2018-Feb-24 14:00N 36°10' W 025°09'3 6.4
2018-Feb-24 13:30N 36°09' W 025°06'3 6.0
2018-Feb-24 13:00N 36°08' W 025°02'3 5.5
2018-Feb-24 12:30N 36°07' W 024°59'2 4.0
2018-Feb-24 12:00N 36°06' W 024°57'3 5.4
2018-Feb-24 11:30N 36°03' W 024°57'3 6.4
2018-Feb-24 11:00N 36°00' W 024°58'3 6.5
2018-Feb-24 10:30N 35°57' W 024°59'3 6.3
2018-Feb-24 10:01N 35°54' W 024°59'3 6.1
2018-Feb-24 09:30N 35°51' W 024°59'3 6.0
2018-Feb-24 09:00N 35°48' W 025°01'3 6.4
2018-Feb-24 08:30N 35°45' W 025°02'3 6.5
2018-Feb-24 08:00N 35°42' W 025°04'3 5.3
2018-Feb-24 07:27N 35°40' W 025°02'7 6.9
2018-Feb-24 06:28N 35°36' W 024°56'  
2018-Feb-20 01:53N 28°40' W 016°04'2 5.2
2018-Feb-20 01:30N 28°39' W 016°02'3 5.1
2018-Feb-20 01:00N 28°37' W 015°60'2 4.4
2018-Feb-20 00:29N 28°36' W 015°58'2 4.5
2018-Feb-20 00:00N 28°35' W 015°55'2 4.2
2018-Feb-19 23:30N 28°34' W 015°53'2 4.6
2018-Feb-19 23:00N 28°33' W 015°51'2 4.7
2018-Feb-19 22:30N 28°32' W 015°49'2 4.7
2018-Feb-19 21:59N 28°30' W 015°46'2 4.4
2018-Feb-19 21:30N 28°29' W 015°44'2 3.8
2018-Feb-19 21:00N 28°28' W 015°42'2 4.4
2018-Feb-19 20:30N 28°27' W 015°40'2 4.9
2018-Feb-19 20:00N 28°25' W 015°38'2 3.8
2018-Feb-19 19:30N 28°25' W 015°36'2 3.9
2018-Feb-19 19:00N 28°24' W 015°34'2 4.5
2018-Feb-19 18:30N 28°23' W 015°32'2 4.4
2018-Feb-19 18:00N 28°22' W 015°29'2 3.2
2018-Feb-19 17:30N 28°21' W 015°28'1 2.9
2018-Feb-19 17:00N 28°20' W 015°27'2 3.3
2018-Feb-19 16:30N 28°19' W 015°26'2 4.9
2018-Feb-19 16:00N 28°17' W 015°25'2 4.9
2018-Feb-19 15:30N 28°14' W 015°23'2 4.5
2018-Feb-19 15:00N 28°12' W 015°23'2 4.8
2018-Feb-19 14:30N 28°10' W 015°23'2 4.7
2018-Feb-19 14:00N 28°08' W 015°23'2 4.4
2018-Feb-19 13:30N 28°07' W 015°25'1 2.3
2018-Feb-19 13:00N 28°08' W 015°26'0 0.0
2018-Feb-19 12:20N 28°08' W 015°26'0 0.0
2018-Feb-19 11:53N 28°08' W 015°26'0 0.0
2018-Feb-19 11:23N 28°08' W 015°26'0 0.0
2018-Feb-19 10:53N 28°08' W 015°26'0 0.0
2018-Feb-19 10:26N 28°08' W 015°26'0 0.0
2018-Feb-19 09:56N 28°08' W 015°26'0 0.0
2018-Feb-19 09:26N 28°08' W 015°26'0 0.0
2018-Feb-19 08:56N 28°08' W 015°26'0 0.0
2018-Feb-19 08:11N 28°08' W 015°26'0 0.0
2018-Feb-19 07:56N 28°08' W 015°26'0 0.0
2018-Feb-19 07:23N 28°08' W 015°26'0 0.0
2018-Feb-19 06:53N 28°08' W 015°26'0 0.0
2018-Feb-19 06:26N 28°08' W 015°26'0 0.0
2018-Feb-19 05:56N 28°08' W 015°26'0 0.0
2018-Feb-19 05:29N 28°08' W 015°26'0 0.0
2018-Feb-19 04:59N 28°08' W 015°26'0 0.0
2018-Feb-19 04:29N 28°08' W 015°26'0 0.0
2018-Feb-19 03:59N 28°08' W 015°26'0 0.0
2018-Feb-19 03:29N 28°08' W 015°26'0 0.0
2018-Feb-19 02:59N 28°08' W 015°26'0 0.0
2018-Feb-19 02:29N 28°08' W 015°26'0 0.0
2018-Feb-19 01:59N 28°08' W 015°26'0 0.0
2018-Feb-19 01:29N 28°08' W 015°26'0 0.0
2018-Feb-19 00:56N 28°08' W 015°26'0 0.0
2018-Feb-19 00:26N 28°08' W 015°26'0 0.0
2018-Feb-18 23:59N 28°08' W 015°26'0 0.0
2018-Feb-18 23:29N 28°08' W 015°26'0 0.0
2018-Feb-18 22:59N 28°08' W 015°26'0 0.0
2018-Feb-18 22:29N 28°08' W 015°26'0 0.0
2018-Feb-18 21:59N 28°08' W 015°26'0 0.0
2018-Feb-18 21:29N 28°08' W 015°26'0 0.0
2018-Feb-18 20:59N 28°08' W 015°26'0 0.0
2018-Feb-18 20:29N 28°08' W 015°26'0 0.0
2018-Feb-18 19:59N 28°08' W 015°26'0 0.0
2018-Feb-18 19:29N 28°08' W 015°26'0 0.0
2018-Feb-18 18:59N 28°08' W 015°26'0 0.0
2018-Feb-18 18:29N 28°08' W 015°26'0 0.0
2018-Feb-18 17:59N 28°08' W 015°26'0 0.0
2018-Feb-18 17:17N 28°08' W 015°26'0 0.0
2018-Feb-18 16:50N 28°08' W 015°26'0 0.0
2018-Feb-18 16:20N 28°08' W 015°26'0 0.0
2018-Feb-18 15:50N 28°08' W 015°26'0 0.0
2018-Feb-18 15:20N 28°08' W 015°26'0 0.0
2018-Feb-18 14:53N 28°08' W 015°26'0 0.0
2018-Feb-18 14:05N 28°08' W 015°26'0 0.0
2018-Feb-18 13:53N 28°08' W 015°26'0 0.0
2018-Feb-18 13:23N 28°08' W 015°26'0 0.0
2018-Feb-18 12:50N 28°08' W 015°26'0 0.0
2018-Feb-18 12:23N 28°08' W 015°26'0 0.0
2018-Feb-18 11:53N 28°08' W 015°26'0 0.0
2018-Feb-18 11:20N 28°08' W 015°26'0 0.0
2018-Feb-18 10:53N 28°08' W 015°26'0 0.0
2018-Feb-18 10:26N 28°08' W 015°26'0 0.0
2018-Feb-18 09:56N 28°08' W 015°26'0 0.0
2018-Feb-18 09:23N 28°08' W 015°26'0 0.0
2018-Feb-18 08:56N 28°08' W 015°26'0 0.0
2018-Feb-18 08:23N 28°08' W 015°26'0 0.0
2018-Feb-18 07:41N 28°08' W 015°26'0 0.0
2018-Feb-18 07:08N 28°08' W 015°26'0 0.0
2018-Feb-18 06:56N 28°08' W 015°26'0 0.0
2018-Feb-18 06:23N 28°08' W 015°26'0 0.0
2018-Feb-18 05:53N 28°08' W 015°26'0 0.0
2018-Feb-18 05:26N 28°08' W 015°26'0 0.0
2018-Feb-18 04:59N 28°08' W 015°26'0 0.0
2018-Feb-18 04:29N 28°08' W 015°26'0 0.0
2018-Feb-18 03:59N 28°08' W 015°26'0 0.0
2018-Feb-18 03:29N 28°08' W 015°26'0 0.0
2018-Feb-18 02:59N 28°08' W 015°26'0 0.0
2018-Feb-18 02:26N 28°08' W 015°26'0 0.0
2018-Feb-18 01:59N 28°08' W 015°26'0 0.0
2018-Feb-18 01:26N 28°08' W 015°26'0 0.0
2018-Feb-18 00:55N 28°08' W 015°26'0 0.0
2018-Feb-18 00:28N 28°08' W 015°26'0 0.0
2018-Feb-17 23:58N 28°08' W 015°26'0 0.0
2018-Feb-17 23:28N 28°08' W 015°26'0 0.0
2018-Feb-17 22:58N 28°08' W 015°26'0 0.0
2018-Feb-17 22:28N 28°08' W 015°26'0 0.0
2018-Feb-17 21:55N 28°08' W 015°26'0 0.0
2018-Feb-17 21:28N 28°08' W 015°26'0 0.0
2018-Feb-17 20:58N 28°08' W 015°26'0 0.0
2018-Feb-17 20:28N 28°08' W 015°26'0 0.0
2018-Feb-17 19:46N 28°08' W 015°26'0 0.0
2018-Feb-17 19:28N 28°08' W 015°26'0 0.0
2018-Feb-17 18:58N 28°08' W 015°26'0 0.0
2018-Feb-17 18:28N 28°08' W 015°26'0 0.0
2018-Feb-17 17:58N 28°08' W 015°26'0 0.0
2018-Feb-17 17:19N 28°08' W 015°26'0 0.0
2018-Feb-17 16:58N 28°08' W 015°26'0 0.0
2018-Feb-17 16:19N 28°08' W 015°26'0 0.0
2018-Feb-17 15:49N 28°08' W 015°26'0 0.0
2018-Feb-17 15:19N 28°08' W 015°26'0 0.0
2018-Feb-17 14:49N 28°08' W 015°26'0 0.0
2018-Feb-17 14:16N 28°08' W 015°26'0 0.0
2018-Feb-17 13:49N 28°08' W 015°26'0 0.0
2018-Feb-17 13:19N 28°08' W 015°26'0 0.0
2018-Feb-17 12:52N 28°08' W 015°26'0 0.0
2018-Feb-17 12:22N 28°08' W 015°26'0 0.0
2018-Feb-17 11:19N 28°08' W 015°26'0 0.0
2018-Feb-17 10:52N 28°08' W 015°26'0 0.0
2018-Feb-17 10:22N 28°08' W 015°26'0 0.0
2018-Feb-17 09:52N 28°08' W 015°26'0 0.0
2018-Feb-17 09:25N 28°08' W 015°26'0 0.0
2018-Feb-17 08:55N 28°08' W 015°26'0 0.0
2018-Feb-17 08:25N 28°08' W 015°26'0 0.0
2018-Feb-17 07:55N 28°08' W 015°26'0 0.0
2018-Feb-17 07:25N 28°08' W 015°26'0 0.0
2018-Feb-17 06:55N 28°08' W 015°26'0 0.0
2018-Feb-17 06:25N 28°08' W 015°26'0 0.0
2018-Feb-17 05:55N 28°08' W 015°26'0 0.0
2018-Feb-17 05:25N 28°08' W 015°26'0 0.0
2018-Feb-17 04:55N 28°08' W 015°26'0 0.0
2018-Feb-17 04:28N 28°08' W 015°26'0 0.0
2018-Feb-17 03:58N 28°08' W 015°26'0 0.0
2018-Feb-17 03:28N 28°08' W 015°26'0 0.0
2018-Feb-17 02:58N 28°08' W 015°26'0 0.0
2018-Feb-17 02:28N 28°08' W 015°26'0 0.0
2018-Feb-17 01:58N 28°08' W 015°26'0 0.0
2018-Feb-17 01:28N 28°08' W 015°26'0 0.0
2018-Feb-17 00:58N 28°08' W 015°26'0 0.0
2018-Feb-17 00:28N 28°08' W 015°26'0 0.0
2018-Feb-16 23:58N 28°08' W 015°26'0 0.0
2018-Feb-16 23:25N 28°08' W 015°26'0 0.0
2018-Feb-16 22:58N 28°08' W 015°26'0 0.0
2018-Feb-16 22:28N 28°08' W 015°26'0 0.0
2018-Feb-16 21:58N 28°08' W 015°26'0 0.0
2018-Feb-16 21:25N 28°08' W 015°26'0 0.0
2018-Feb-16 20:58N 28°08' W 015°26'0 0.0
2018-Feb-16 20:28N 28°08' W 015°26'0 0.0
2018-Feb-16 19:58N 28°08' W 015°26'0 0.0
2018-Feb-16 19:28N 28°08' W 015°26'0 0.0
2018-Feb-16 18:43N 28°08' W 015°26'0 0.0
2018-Feb-16 18:28N 28°08' W 015°26'0 0.0
2018-Feb-16 17:49N 28°08' W 015°26'0 0.0
2018-Feb-16 17:19N 28°08' W 015°26'0 0.0
2018-Feb-16 16:58N 28°08' W 015°26'0 0.0
2018-Feb-16 16:19N 28°08' W 015°26'0 0.0
2018-Feb-16 15:46N 28°08' W 015°26'0 0.0
2018-Feb-16 15:31N 28°08' W 015°26'0 0.0
2018-Feb-16 15:01N 28°08' W 015°26'0 0.0
2018-Feb-16 14:30N 28°08' W 015°26'2 3.5
2018-Feb-16 14:00N 28°07' W 015°24'2 4.7
2018-Feb-16 13:30N 28°09' W 015°23'2 4.9
2018-Feb-16 13:00N 28°12' W 015°23'3 5.5
2018-Feb-16 12:30N 28°14' W 015°25'3 5.9
2018-Feb-16 12:00N 28°16' W 015°28'3 5.7
2018-Feb-16 11:30N 28°18' W 015°30'3 5.8
2018-Feb-16 11:00N 28°20' W 015°33'3 5.7
2018-Feb-16 10:30N 28°21' W 015°35'3 5.3
2018-Feb-16 10:00N 28°23' W 015°37'2 5.1
2018-Feb-16 09:30N 28°25' W 015°40'2 3.4
2018-Feb-16 09:00N 28°26' W 015°41'2 5.0
2018-Feb-16 08:30N 28°28' W 015°43'2 4.6
2018-Feb-16 08:00N 28°30' W 015°44'3 5.3
2018-Feb-16 07:30N 28°32' W 015°46'3 5.6
2018-Feb-16 07:00N 28°34' W 015°48'3 6.2
2018-Feb-16 06:29N 28°36' W 015°50'3 6.0
2018-Feb-16 06:00N 28°39' W 015°52'1 1.7
2018-Feb-16 05:30N 28°39' W 015°53'2 4.0
2018-Feb-16 05:00N 28°40' W 015°55'2 4.1
2018-Feb-16 04:30N 28°42' W 015°57'2 4.4
2018-Feb-16 04:00N 28°44' W 015°58'3 5.8
2018-Feb-16 03:30N 28°46' W 015°59'2 4.4
2018-Feb-16 02:58N 28°48' W 016°00'4 7.6
2018-Feb-16 02:29N 28°51' W 016°03'4 6.4
2018-Feb-16 01:52N 28°54' W 016°06'3 5.6
2018-Feb-16 01:25N 28°57' W 016°07'3 4.3
2018-Feb-16 00:50N 28°59' W 016°09'10 1.7
2018-Feb-15 18:58N 28°52' W 016°17'4 7.8
2018-Feb-15 18:30N 28°49' W 016°17'7 7.5
2018-Feb-15 17:37N 28°42' W 016°19'1 1.8
2018-Feb-15 17:18N 28°42' W 016°19'3 7.0
2018-Feb-15 16:54N 28°45' W 016°21'19 6.3
2018-Feb-15 13:56N 28°60' W 016°34'13 6.1
2018-Feb-15 11:49N 29°09' W 016°43'2 6.1
2018-Feb-15 11:27N 29°11' W 016°45'3 7.0
2018-Feb-15 10:59N 29°14' W 016°48'3 7.1
2018-Feb-15 10:30N 29°16' W 016°50'  

Dump ship's entire track history